메인 페이지
METAR-TAF:

METAR-TAF

공항 :

쿤밍 창수이 국제공항

쿤밍, 중국

위도: 25-01N, 경도: 102-41E, 고도: 1892m

현재 날씨관측

예보는 49분 전, 21:00시(UTC)에 발표되었습니다.
북북동8kt
온도 14°C
습도 100%
기압 1022 hPa
시정: 8000m
고도 400ft 상공 구름 보통
고도 1600ft 상공 구름 많음
고도 3300ft 상공 흐림
약한소나기

METAR: ZPPP 222100Z 02004MPS 8000 -SHRA SCT004 BKN016 OVC033 14/14 Q1022 NOSIG

시각: 05:49 (21:49 UTC)

예보

예보는 8 시간 28분 전, 13:21시(UTC)에 발표되었습니다.
예보 대상 시간: 22일 18시부터 23일 18시까지 (UTC)
북동12kt
시정 10km 이상
고도 2600ft 상공 구름 보통
고도 4000ft 상공 구름 많음
전환 중
23일 01시부터 23일 02시까지 (UTC)
남서12kt

TAF: ZPPP 221321Z 2218/2318 04006MPS 9999 SCT026 BKN040 TX25/2308Z TN14/2223Z BECMG 2301/2302 22006MPS

4,000개 이상의 공항 관측 자료 및 예보 (METAR 및 TAF 보고).

지도상에서 검색 가능한 기상관측소가 노란 점과 빨간 점으로 표시되어 있습니다.

기상관측소 명을 보려면 표시 위로 마우스를 이동하세요.

날씨 관측과 예보를 보려면 클릭하세요.

지도 변경 : 확대하려면 엑스 표시가 있는 녹색 버튼, 축소하려면 빼기 표시가 있는 녹색 버튼, 다음 페이지의 지도를 보려면 녹색 화살표를 클릭하세요.


METAR-TAF: